createdAt,value
2018-07-20T00:02:04.373Z,18.80
2018-07-20T00:04:32.869Z,18.80
2018-07-20T00:07:01.421Z,18.80
2018-07-20T00:09:30.949Z,18.70
2018-07-20T00:11:59.440Z,18.70
2018-07-20T00:14:27.929Z,18.70
2018-07-20T00:16:56.405Z,18.70
2018-07-20T00:19:24.881Z,18.60
2018-07-20T00:21:55.097Z,18.60
2018-07-20T00:24:23.550Z,18.60
2018-07-20T00:26:51.997Z,18.60
2018-07-20T00:29:20.523Z,18.50
2018-07-20T00:31:49.642Z,18.50
2018-07-20T00:34:18.810Z,18.50
2018-07-20T00:36:47.296Z,18.40
2018-07-20T00:39:15.789Z,18.40
2018-07-20T00:41:44.313Z,18.40
2018-07-20T00:44:12.748Z,18.30
2018-07-20T00:46:41.209Z,18.30
2018-07-20T00:49:09.691Z,18.30
2018-07-20T00:51:38.224Z,18.30
2018-07-20T00:54:06.710Z,18.20
2018-07-20T00:56:35.131Z,18.20
2018-07-20T00:59:03.624Z,18.10
2018-07-20T01:01:32.130Z,18.10
2018-07-20T01:04:00.676Z,18.10
2018-07-20T01:06:29.785Z,18.10
2018-07-20T01:08:58.246Z,18.00
2018-07-20T01:11:26.836Z,18.00
2018-07-20T01:13:55.405Z,18.00
2018-07-20T01:16:23.867Z,17.90
2018-07-20T01:18:52.348Z,17.90
2018-07-20T01:21:20.840Z,17.90
2018-07-20T01:23:49.335Z,17.80
2018-07-20T01:26:17.775Z,17.80
2018-07-20T01:28:46.291Z,17.80
2018-07-20T01:31:14.752Z,17.80
2018-07-20T01:33:43.322Z,17.80
2018-07-20T01:36:11.825Z,17.70
2018-07-20T01:38:40.964Z,17.70
2018-07-20T01:43:37.637Z,17.70
2018-07-20T01:46:06.121Z,17.60
2018-07-20T01:48:34.613Z,17.60
2018-07-20T01:51:03.077Z,17.60
2018-07-20T01:53:31.613Z,17.60
2018-07-20T01:56:00.065Z,17.50
2018-07-20T01:58:29.112Z,17.50
2018-07-20T02:00:57.575Z,17.50
2018-07-20T02:03:26.075Z,17.40
2018-07-20T02:05:54.530Z,17.40
2018-07-20T02:08:23.006Z,17.40
2018-07-20T02:10:59.707Z,17.40
2018-07-20T02:13:28.244Z,17.40
2018-07-20T02:15:57.502Z,17.30
2018-07-20T02:18:25.996Z,17.30
2018-07-20T02:20:54.526Z,17.30
2018-07-20T02:23:23.632Z,17.30
2018-07-20T02:25:52.188Z,17.30
2018-07-20T02:28:20.745Z,17.30
2018-07-20T02:30:49.234Z,17.30
2018-07-20T02:33:17.721Z,17.30
2018-07-20T02:35:46.224Z,17.30
2018-07-20T02:38:14.797Z,17.20
2018-07-20T02:40:43.329Z,17.20
2018-07-20T02:43:11.946Z,17.20
2018-07-20T02:45:40.413Z,17.20
2018-07-20T02:48:08.922Z,17.20
2018-07-20T02:50:37.450Z,17.20
2018-07-20T02:53:05.941Z,17.10
2018-07-20T02:55:34.454Z,17.10
2018-07-20T02:58:02.897Z,17.00
2018-07-20T03:00:31.439Z,17.00
2018-07-20T03:02:59.924Z,16.90
2018-07-20T03:05:28.441Z,16.90
2018-07-20T03:07:56.866Z,16.90
2018-07-20T03:10:25.458Z,16.80
2018-07-20T03:12:53.925Z,16.80
2018-07-20T03:15:22.966Z,16.80
2018-07-20T03:17:51.436Z,16.70
2018-07-20T03:20:19.891Z,16.70
2018-07-20T03:22:48.357Z,16.60
2018-07-20T03:25:16.865Z,16.70
2018-07-20T03:27:45.368Z,16.60
2018-07-20T03:30:13.859Z,16.60
2018-07-20T03:32:42.488Z,16.60
2018-07-20T03:35:10.933Z,16.60
2018-07-20T03:37:39.465Z,16.50
2018-07-20T03:40:07.993Z,16.50
2018-07-20T03:42:36.465Z,16.50
2018-07-20T03:45:06.044Z,16.50
2018-07-20T03:47:34.497Z,16.50
2018-07-20T03:50:03.051Z,16.40
2018-07-20T03:52:31.656Z,16.40
2018-07-20T03:55:00.244Z,16.40
2018-07-20T03:57:33.194Z,16.40
2018-07-20T04:00:01.686Z,16.40
2018-07-20T04:02:30.249Z,16.40
2018-07-20T04:04:58.761Z,16.40
2018-07-20T04:07:27.823Z,16.40
2018-07-20T04:09:56.254Z,16.40
2018-07-20T04:12:24.838Z,16.40
2018-07-20T04:14:53.400Z,16.40
2018-07-20T04:17:21.977Z,16.40
2018-07-20T04:19:50.581Z,16.40
2018-07-20T04:22:19.176Z,16.40
2018-07-20T04:24:47.738Z,16.40
2018-07-20T04:27:16.251Z,16.40
2018-07-20T04:29:44.834Z,16.50
2018-07-20T04:32:13.367Z,16.50
2018-07-20T04:34:41.865Z,16.50
2018-07-20T04:37:10.410Z,16.50
2018-07-20T04:39:39.045Z,16.50
2018-07-20T04:42:07.609Z,16.60
2018-07-20T04:44:36.168Z,16.60
2018-07-20T04:47:05.500Z,16.60
2018-07-20T04:52:02.913Z,16.70
2018-07-20T04:54:31.508Z,16.70
2018-07-20T04:57:00.011Z,16.70
2018-07-20T04:59:28.646Z,16.80
2018-07-20T05:01:57.129Z,16.80
2018-07-20T05:04:25.622Z,16.80
2018-07-20T05:06:54.093Z,16.90
2018-07-20T05:09:22.617Z,16.90
2018-07-20T05:11:51.128Z,17.00
2018-07-20T05:14:19.656Z,17.00
2018-07-20T05:16:48.287Z,17.10
2018-07-20T05:19:16.792Z,17.10
2018-07-20T05:21:45.568Z,17.20
2018-07-20T05:24:14.046Z,17.20
2018-07-20T05:26:42.508Z,17.30
2018-07-20T05:29:11.661Z,17.40
2018-07-20T05:31:40.146Z,17.40
2018-07-20T05:34:08.635Z,17.50
2018-07-20T05:36:37.209Z,17.50
2018-07-20T05:39:07.742Z,17.60
2018-07-20T05:41:36.312Z,17.60
2018-07-20T05:44:04.934Z,17.70
2018-07-20T05:46:33.525Z,17.80
2018-07-20T05:49:01.997Z,17.90
2018-07-20T05:51:30.531Z,17.90
2018-07-20T05:53:59.110Z,18.00
2018-07-20T05:56:27.626Z,18.10
2018-07-20T05:58:56.118Z,18.30
2018-07-20T06:01:24.588Z,18.40
2018-07-20T06:03:53.135Z,18.60
2018-07-20T06:06:21.636Z,18.70
2018-07-20T06:08:50.233Z,18.90
2018-07-20T06:11:18.725Z,19.10
2018-07-20T06:13:47.403Z,19.20
2018-07-20T06:16:15.903Z,19.40
2018-07-20T06:18:45.168Z,19.60
2018-07-20T06:21:13.722Z,19.70
2018-07-20T06:23:43.120Z,19.90
2018-07-20T06:26:11.571Z,20.10
2018-07-20T06:28:40.098Z,20.30
2018-07-20T06:31:08.553Z,20.50
2018-07-20T06:33:37.036Z,20.70
2018-07-20T06:36:05.490Z,21.00
2018-07-20T06:38:33.974Z,21.20
2018-07-20T06:41:02.426Z,21.40
2018-07-20T06:43:30.881Z,21.60
2018-07-20T06:45:59.442Z,21.90
2018-07-20T06:48:29.269Z,22.10
2018-07-20T06:50:58.485Z,22.30
2018-07-20T06:53:27.105Z,22.50
2018-07-20T06:55:55.678Z,22.70
2018-07-20T06:58:24.146Z,22.80
2018-07-20T07:00:53.353Z,23.00
2018-07-20T07:03:21.844Z,23.20
2018-07-20T07:05:50.294Z,23.30
2018-07-20T07:08:18.924Z,23.60
2018-07-20T07:10:47.399Z,23.70
2018-07-20T07:13:15.843Z,24.00
2018-07-20T07:15:44.427Z,24.30
2018-07-20T07:18:12.899Z,24.50
2018-07-20T07:20:41.523Z,24.70
2018-07-20T07:23:10.310Z,24.90
2018-07-20T07:25:38.838Z,25.10
2018-07-20T07:28:07.354Z,25.30
2018-07-20T07:30:35.932Z,25.40
2018-07-20T07:33:04.463Z,25.60
2018-07-20T07:35:32.977Z,25.80
2018-07-20T07:38:01.425Z,26.00
2018-07-20T07:40:29.931Z,26.20
2018-07-20T07:42:58.407Z,26.40
2018-07-20T07:45:27.035Z,26.50
2018-07-20T07:47:55.503Z,26.70
2018-07-20T07:50:23.992Z,26.90
2018-07-20T07:52:52.487Z,27.20
2018-07-20T07:55:21.290Z,27.40
2018-07-20T07:57:50.403Z,27.60
2018-07-20T08:00:18.942Z,27.70
2018-07-20T08:02:47.415Z,27.80
2018-07-20T08:05:15.988Z,28.10
2018-07-20T08:07:44.513Z,28.30
2018-07-20T08:10:13.942Z,28.50
2018-07-20T08:12:43.314Z,28.70
2018-07-20T08:15:11.893Z,28.90
2018-07-20T08:17:40.380Z,28.90
2018-07-20T08:20:09.058Z,29.00
2018-07-20T08:22:37.619Z,28.80
2018-07-20T08:25:06.138Z,29.00
2018-07-20T08:27:34.690Z,29.20
2018-07-20T08:30:03.181Z,29.30
2018-07-20T08:32:32.907Z,29.50
2018-07-20T08:35:01.390Z,29.50
2018-07-20T08:37:30.318Z,29.50
2018-07-20T08:39:58.904Z,29.30
2018-07-20T08:42:27.450Z,29.10
2018-07-20T08:44:56.831Z,29.40
2018-07-20T08:47:25.444Z,29.50
2018-07-20T08:49:54.110Z,29.40
2018-07-20T08:52:27.105Z,29.40
2018-07-20T08:54:55.646Z,29.40
2018-07-20T08:57:24.147Z,29.30
2018-07-20T08:59:52.635Z,29.30
2018-07-20T09:02:21.261Z,29.40
2018-07-20T09:04:49.774Z,29.50
2018-07-20T09:07:18.294Z,29.60
2018-07-20T09:09:46.943Z,29.80
2018-07-20T09:12:15.573Z,30.20
2018-07-20T09:14:44.146Z,30.60
2018-07-20T09:17:12.979Z,30.70
2018-07-20T09:19:41.490Z,30.90
2018-07-20T09:22:10.070Z,31.00
2018-07-20T09:24:38.737Z,31.00
2018-07-20T09:27:07.248Z,31.20
2018-07-20T09:32:04.534Z,32.00
2018-07-20T09:34:33.151Z,32.30
2018-07-20T09:37:01.957Z,32.50
2018-07-20T09:39:30.925Z,32.10
2018-07-20T09:42:00.481Z,31.80
2018-07-20T09:44:30.561Z,32.00
2018-07-20T09:46:59.613Z,32.30
2018-07-20T09:49:28.498Z,32.70
2018-07-20T09:51:57.278Z,33.10
2018-07-20T09:54:26.149Z,33.50
2018-07-20T09:56:55.105Z,33.80
2018-07-20T09:59:24.292Z,34.00
2018-07-20T10:01:52.938Z,34.10
2018-07-20T10:04:21.882Z,34.40
2018-07-20T10:06:50.548Z,34.70
2018-07-20T10:09:19.277Z,34.80
2018-07-20T10:11:48.366Z,35.00
2018-07-20T10:14:17.087Z,35.30
2018-07-20T10:16:46.079Z,35.50
2018-07-20T10:19:14.827Z,35.60
2018-07-20T10:21:43.832Z,35.70
2018-07-20T10:24:12.627Z,35.90
2018-07-20T10:26:41.445Z,36.00
2018-07-20T10:29:11.244Z,35.90
2018-07-20T10:31:40.459Z,36.10
2018-07-20T10:34:09.516Z,36.30
2018-07-20T10:36:38.613Z,36.60
2018-07-20T10:39:09.774Z,36.50
2018-07-20T10:41:38.492Z,36.70
2018-07-20T10:44:07.100Z,36.70
2018-07-20T10:46:35.693Z,36.90
2018-07-20T10:49:04.511Z,37.10
2018-07-20T10:51:33.325Z,37.40
2018-07-20T10:54:01.897Z,37.60
2018-07-20T10:56:30.745Z,37.40
2018-07-20T10:58:59.511Z,37.00
2018-07-20T11:01:28.410Z,37.00
2018-07-20T11:03:57.064Z,37.40
2018-07-20T11:06:25.805Z,37.60
2018-07-20T11:08:54.430Z,37.40
2018-07-20T11:11:23.364Z,37.10
2018-07-20T11:13:52.161Z,37.30
2018-07-20T11:16:20.825Z,37.50
2018-07-20T11:18:49.659Z,37.70
2018-07-20T11:21:18.617Z,38.00
2018-07-20T11:23:47.484Z,37.60
2018-07-20T11:26:16.203Z,37.20
2018-07-20T11:28:45.022Z,36.80
2018-07-20T11:31:13.890Z,36.70
2018-07-20T11:33:42.724Z,36.80
2018-07-20T11:36:11.426Z,36.80
2018-07-20T11:38:40.319Z,36.70
2018-07-20T11:41:09.407Z,36.30
2018-07-20T11:43:38.232Z,36.20
2018-07-20T11:46:06.880Z,36.00
2018-07-20T11:48:36.143Z,36.00
2018-07-20T11:51:05.477Z,36.30
2018-07-20T11:53:34.460Z,36.70
2018-07-20T11:56:03.323Z,37.10
2018-07-20T11:58:31.864Z,37.50
2018-07-20T12:01:00.476Z,37.80
2018-07-20T12:03:29.041Z,37.80
2018-07-20T12:05:57.586Z,38.10
2018-07-20T12:08:26.154Z,38.40
2018-07-20T12:10:54.686Z,38.60
2018-07-20T12:13:23.312Z,38.70
2018-07-20T12:15:51.837Z,38.80
2018-07-20T12:18:20.385Z,38.80
2018-07-20T12:20:48.957Z,38.40
2018-07-20T12:23:17.517Z,38.50
2018-07-20T12:25:46.064Z,38.50
2018-07-20T12:28:14.700Z,38.40
2018-07-20T12:30:43.282Z,38.80
2018-07-20T12:33:11.830Z,38.90
2018-07-20T12:35:40.398Z,39.00
2018-07-20T12:38:09.063Z,39.30
2018-07-20T12:40:38.083Z,39.60
2018-07-20T12:43:06.732Z,39.60
2018-07-20T12:45:35.352Z,39.50
2018-07-20T12:48:03.849Z,39.80
2018-07-20T12:50:33.089Z,40.10
2018-07-20T12:53:01.957Z,40.30
2018-07-20T12:55:30.446Z,40.40
2018-07-20T12:57:58.957Z,40.60
2018-07-20T13:00:27.477Z,40.70
2018-07-20T13:02:56.035Z,40.80
2018-07-20T13:05:24.747Z,40.70
2018-07-20T13:07:59.965Z,40.60
2018-07-20T13:10:28.532Z,40.70
2018-07-20T13:12:57.152Z,40.60
2018-07-20T13:15:25.750Z,40.60
2018-07-20T13:17:54.485Z,40.90
2018-07-20T13:20:22.979Z,41.10
2018-07-20T13:22:51.482Z,41.20
2018-07-20T13:25:19.978Z,41.20
2018-07-20T13:27:48.574Z,40.80
2018-07-20T13:30:17.098Z,40.60
2018-07-20T13:32:45.685Z,40.40
2018-07-20T13:35:14.245Z,40.50
2018-07-20T13:37:42.778Z,40.00
2018-07-20T13:40:11.592Z,39.50
2018-07-20T13:42:40.226Z,38.80
2018-07-20T13:45:08.921Z,38.40
2018-07-20T13:47:37.468Z,38.10
2018-07-20T13:50:06.407Z,37.50
2018-07-20T13:52:35.062Z,37.00
2018-07-20T13:55:03.684Z,36.60
2018-07-20T13:57:32.218Z,36.10
2018-07-20T14:00:00.827Z,35.80
2018-07-20T14:02:29.376Z,36.00
2018-07-20T14:04:57.949Z,36.20
2018-07-20T14:07:26.505Z,36.50
2018-07-20T14:12:29.757Z,37.00
2018-07-20T14:14:58.357Z,37.20
2018-07-20T14:17:26.984Z,37.60
2018-07-20T14:19:55.516Z,37.80
2018-07-20T14:22:24.071Z,38.10
2018-07-20T14:24:53.503Z,38.20
2018-07-20T14:27:22.051Z,38.30
2018-07-20T14:29:50.575Z,38.20
2018-07-20T14:32:19.150Z,38.10
2018-07-20T14:34:47.698Z,37.90
2018-07-20T14:39:44.479Z,37.70
2018-07-20T14:42:12.977Z,37.40
2018-07-20T14:44:41.459Z,37.40
2018-07-20T14:47:10.197Z,37.50
2018-07-20T14:49:38.844Z,37.50
2018-07-20T14:52:07.433Z,37.70
2018-07-20T14:54:35.992Z,37.30
2018-07-20T14:57:04.477Z,37.00
2018-07-20T14:59:33.027Z,36.70
2018-07-20T15:02:01.582Z,36.60
2018-07-20T15:04:30.427Z,36.30
2018-07-20T15:06:59.808Z,36.20
2018-07-20T15:09:28.315Z,36.00
2018-07-20T15:12:01.396Z,35.90
2018-07-20T15:14:30.293Z,35.60
2018-07-20T15:16:59.352Z,35.20
2018-07-20T15:19:28.351Z,35.20
2018-07-20T15:21:57.642Z,35.20
2018-07-20T15:24:26.192Z,35.40
2018-07-20T15:29:23.473Z,35.00
2018-07-20T15:31:51.998Z,35.20
2018-07-20T15:34:20.580Z,35.20
2018-07-20T15:36:49.060Z,34.90
2018-07-20T15:39:17.569Z,34.60
2018-07-20T15:44:14.289Z,33.90
2018-07-20T15:46:42.884Z,33.70
2018-07-20T15:49:11.238Z,33.40
2018-07-20T15:53:35.205Z,33.20
2018-07-20T15:54:08.194Z,33.00
2018-07-20T15:56:36.689Z,32.80
2018-07-20T15:59:05.283Z,32.80
2018-07-20T16:01:33.783Z,32.60
2018-07-20T16:04:02.367Z,32.40
2018-07-20T16:06:31.580Z,32.20
2018-07-20T16:09:00.046Z,32.00
2018-07-20T16:11:28.520Z,31.80
2018-07-20T16:13:57.038Z,31.80
2018-07-20T16:16:25.530Z,31.60
2018-07-20T16:18:54.957Z,31.50
2018-07-20T16:21:23.493Z,31.40
2018-07-20T16:23:51.970Z,31.20
2018-07-20T16:26:20.619Z,31.20
2018-07-20T16:28:49.174Z,31.00
2018-07-20T16:31:17.627Z,30.90
2018-07-20T16:33:46.173Z,30.80
2018-07-20T16:36:15.401Z,30.80
2018-07-20T16:38:44.054Z,30.60
2018-07-20T16:41:12.640Z,30.50
2018-07-20T16:43:41.229Z,30.40
2018-07-20T16:46:09.755Z,30.30
2018-07-20T16:48:38.304Z,30.20
2018-07-20T16:51:06.877Z,30.10
2018-07-20T16:53:35.460Z,30.00
2018-07-20T16:58:32.306Z,29.90
2018-07-20T17:01:00.931Z,29.80
2018-07-20T17:03:34.158Z,29.70
2018-07-20T17:06:04.502Z,29.60
2018-07-20T17:08:33.205Z,29.40
2018-07-20T17:11:01.971Z,29.20
2018-07-20T17:13:30.462Z,29.10
2018-07-20T17:15:59.050Z,29.00
2018-07-20T17:18:27.561Z,28.90
2018-07-20T17:20:56.105Z,28.80
2018-07-20T17:23:25.582Z,28.70
2018-07-20T17:25:54.339Z,28.50
2018-07-20T17:28:22.909Z,28.50
2018-07-20T17:30:51.431Z,28.40
2018-07-20T17:33:20.017Z,28.40
2018-07-20T17:35:48.534Z,28.30
2018-07-20T17:38:17.272Z,28.30
2018-07-20T17:40:45.961Z,28.20
2018-07-20T17:43:15.015Z,28.10
2018-07-20T17:45:43.814Z,28.00
2018-07-20T17:48:12.550Z,27.90
2018-07-20T17:50:41.169Z,27.80
2018-07-20T17:53:09.857Z,27.80
2018-07-20T17:55:38.852Z,27.70
2018-07-20T17:58:07.524Z,27.60
2018-07-20T18:00:36.070Z,27.50
2018-07-20T18:05:33.093Z,27.40
2018-07-20T18:08:02.329Z,27.40
2018-07-20T18:10:31.651Z,27.30
2018-07-20T18:13:00.164Z,27.20
2018-07-20T18:15:28.733Z,27.10
2018-07-20T18:17:57.389Z,27.10
2018-07-20T18:20:25.971Z,27.00
2018-07-20T18:22:54.757Z,27.00
2018-07-20T18:25:23.509Z,26.90
2018-07-20T18:30:20.280Z,26.80
2018-07-20T18:32:48.912Z,26.80
2018-07-20T18:35:17.484Z,26.70
2018-07-20T18:37:46.049Z,26.60
2018-07-20T18:40:14.657Z,26.60
2018-07-20T18:42:43.251Z,26.50
2018-07-20T18:45:11.844Z,26.40
2018-07-20T18:47:41.478Z,26.30
2018-07-20T18:50:10.511Z,26.30
2018-07-20T18:52:39.669Z,26.30
2018-07-20T18:55:08.220Z,26.20
2018-07-20T18:57:36.752Z,26.20
2018-07-20T19:00:05.474Z,26.00
2018-07-20T19:02:34.024Z,26.00
2018-07-20T19:05:02.610Z,25.90
2018-07-20T19:07:31.235Z,25.80
2018-07-20T19:10:00.084Z,25.80
2018-07-20T19:12:28.673Z,25.70
2018-07-20T19:14:57.335Z,25.70
2018-07-20T19:17:25.923Z,25.60
2018-07-20T19:19:54.535Z,25.60
2018-07-20T19:22:23.074Z,25.50
2018-07-20T19:24:51.634Z,25.40
2018-07-20T19:27:20.241Z,25.40
2018-07-20T19:29:48.841Z,25.40
2018-07-20T19:32:17.384Z,25.20
2018-07-20T19:34:46.163Z,25.20
2018-07-20T19:37:14.708Z,25.00
2018-07-20T19:39:43.329Z,25.00
2018-07-20T19:42:11.934Z,24.90
2018-07-20T19:44:40.551Z,24.80
2018-07-20T19:47:09.229Z,24.70
2018-07-20T19:49:37.919Z,24.60
2018-07-20T19:52:07.363Z,24.50
2018-07-20T19:54:36.694Z,24.40
2018-07-20T19:57:05.328Z,24.30
2018-07-20T19:59:33.888Z,24.20
2018-07-20T20:02:02.468Z,24.20
2018-07-20T20:05:51.035Z,24.00
2018-07-20T20:08:19.557Z,24.00
2018-07-20T20:10:48.490Z,24.00
2018-07-20T20:13:17.059Z,23.90
2018-07-20T20:15:45.658Z,23.90
2018-07-20T20:18:14.195Z,23.80
2018-07-20T20:20:42.696Z,23.80
2018-07-20T20:23:11.249Z,23.80
2018-07-20T20:25:39.835Z,23.80
2018-07-20T20:28:08.361Z,23.80
2018-07-20T20:30:36.931Z,23.70
2018-07-20T20:33:06.015Z,23.70
2018-07-20T20:35:34.598Z,23.70
2018-07-20T20:38:03.162Z,23.70
2018-07-20T20:40:31.712Z,23.70
2018-07-20T20:43:00.257Z,23.60
2018-07-20T20:45:28.746Z,23.60
2018-07-20T20:47:57.384Z,23.50
2018-07-20T20:50:25.914Z,23.50
2018-07-20T20:52:54.435Z,23.50
2018-07-20T20:55:23.038Z,23.40
2018-07-20T20:57:51.559Z,23.40
2018-07-20T21:00:23.129Z,23.40
2018-07-20T21:02:51.670Z,23.30
2018-07-20T21:05:20.228Z,23.30
2018-07-20T21:07:48.769Z,23.30
2018-07-20T21:10:17.368Z,23.20
2018-07-20T21:12:45.944Z,23.20
2018-07-20T21:15:14.497Z,23.20
2018-07-20T21:17:43.157Z,23.20
2018-07-20T21:22:39.915Z,23.10
2018-07-20T21:25:15.200Z,23.10
2018-07-20T21:27:43.863Z,23.10
2018-07-20T21:30:12.370Z,23.10
2018-07-20T21:32:40.897Z,23.10
2018-07-20T21:35:09.528Z,23.00
2018-07-20T21:37:38.107Z,23.00
2018-07-20T21:40:06.712Z,23.00
2018-07-20T21:42:35.311Z,23.00
2018-07-20T21:45:03.899Z,22.90
2018-07-20T21:47:32.450Z,22.90
2018-07-20T21:50:00.994Z,22.90
2018-07-20T21:52:29.517Z,22.90
2018-07-20T21:54:58.173Z,22.90
2018-07-20T21:57:26.693Z,22.90
2018-07-20T21:59:55.324Z,22.90
2018-07-20T22:02:23.880Z,22.90
2018-07-20T22:04:53.186Z,22.80
2018-07-20T22:07:22.108Z,22.80
2018-07-20T22:10:47.090Z,22.70
2018-07-20T22:13:15.604Z,22.70
2018-07-20T22:15:44.021Z,22.70
2018-07-20T22:18:12.487Z,22.70
2018-07-20T22:20:41.020Z,22.70
2018-07-20T22:23:09.510Z,22.70
2018-07-20T22:25:37.945Z,22.60
2018-07-20T22:28:06.414Z,22.60
2018-07-20T22:30:34.987Z,22.60
2018-07-20T22:33:03.530Z,22.60
2018-07-20T22:35:32.014Z,22.60
2018-07-20T22:38:00.493Z,22.60
2018-07-20T22:40:28.994Z,22.60
2018-07-20T22:42:57.495Z,22.60
2018-07-20T22:45:26.010Z,22.60
2018-07-20T22:47:54.481Z,22.60
2018-07-20T22:50:22.925Z,22.60
2018-07-20T22:52:51.437Z,22.60
2018-07-20T22:55:19.891Z,22.60
2018-07-20T22:57:48.404Z,22.60
2018-07-20T23:00:16.864Z,22.50
2018-07-20T23:05:13.535Z,22.50
2018-07-20T23:07:41.987Z,22.50
2018-07-20T23:10:10.475Z,22.50
2018-07-20T23:12:39.048Z,22.50
2018-07-20T23:15:07.555Z,22.50
2018-07-20T23:17:36.022Z,22.50
2018-07-20T23:20:04.701Z,22.50
2018-07-20T23:22:33.181Z,22.50
2018-07-20T23:25:01.608Z,22.40
2018-07-20T23:27:30.053Z,22.50
2018-07-20T23:32:26.666Z,22.50
2018-07-20T23:34:55.905Z,22.50
2018-07-20T23:37:24.373Z,22.50
2018-07-20T23:42:21.016Z,22.50
2018-07-20T23:44:49.488Z,22.40
2018-07-20T23:47:17.961Z,22.40
2018-07-20T23:49:46.481Z,22.40
2018-07-20T23:52:15.045Z,22.40
2018-07-20T23:54:43.651Z,22.40
2018-07-20T23:57:12.234Z,22.40
2018-07-20T23:59:40.716Z,22.30
